createdAt,value
2023-04-16T00:00:35.124Z,15.40
2023-04-16T00:05:40.072Z,17.90
2023-04-16T00:10:43.457Z,16.37
2023-04-16T00:15:48.732Z,17.00
2023-04-16T00:20:53.590Z,17.43
2023-04-16T00:26:00.057Z,23.97
2023-04-16T00:31:03.864Z,20.57
2023-04-16T00:36:08.976Z,18.53
2023-04-16T00:41:12.996Z,21.50
2023-04-16T00:46:17.983Z,15.77
2023-04-16T00:51:25.460Z,17.23
2023-04-16T00:56:30.010Z,19.23
2023-04-16T01:01:33.288Z,17.73
2023-04-16T01:06:37.911Z,16.73
2023-04-16T01:11:42.039Z,23.33
2023-04-16T01:16:45.209Z,27.20
2023-04-16T01:21:51.046Z,17.07
2023-04-16T01:26:55.051Z,21.93
2023-04-16T01:31:58.403Z,18.73
2023-04-16T01:37:03.051Z,26.33
2023-04-16T01:42:06.316Z,29.13
2023-04-16T01:47:10.045Z,18.10
2023-04-16T01:52:15.488Z,15.40
2023-04-16T01:57:18.878Z,14.27
2023-04-16T02:02:28.219Z,13.97
2023-04-16T02:07:33.330Z,11.77
2023-04-16T02:12:36.505Z,17.20
2023-04-16T02:17:39.793Z,11.20
2023-04-16T02:22:44.666Z,10.93
2023-04-16T02:27:47.856Z,10.33
2023-04-16T02:32:51.179Z,9.03
2023-04-16T02:37:55.786Z,13.93
2023-04-16T02:42:59.569Z,10.20
2023-04-16T02:48:03.027Z,9.43
2023-04-16T02:53:07.944Z,9.47
2023-04-16T02:58:11.161Z,9.90
2023-04-16T03:03:14.663Z,18.33
2023-04-16T03:08:19.383Z,14.37
2023-04-16T03:13:22.796Z,15.43
2023-04-16T03:18:26.173Z,14.30
2023-04-16T03:23:31.073Z,10.67
2023-04-16T03:28:34.631Z,18.83
2023-04-16T03:33:37.960Z,15.13
2023-04-16T03:38:42.781Z,19.93
2023-04-16T03:43:46.094Z,11.93
2023-04-16T03:48:49.299Z,11.17
2023-04-16T03:53:53.959Z,9.50
2023-04-16T03:58:57.162Z,8.60
2023-04-16T04:04:00.993Z,9.37
2023-04-16T04:09:06.185Z,11.43
2023-04-16T04:14:09.589Z,7.93
2023-04-16T04:19:12.877Z,8.40
2023-04-16T04:24:17.668Z,9.57
2023-04-16T04:29:21.017Z,8.17
2023-04-16T04:34:24.302Z,11.40
2023-04-16T04:39:31.848Z,10.40
2023-04-16T04:44:35.031Z,10.17
2023-04-16T04:49:38.265Z,8.57
2023-04-16T04:54:42.901Z,6.73
2023-04-16T04:59:46.228Z,8.57
2023-04-16T05:04:49.473Z,8.00
2023-04-16T05:09:54.196Z,6.47
2023-04-16T05:14:57.680Z,6.53
2023-04-16T05:20:01.921Z,6.63
2023-04-16T05:25:07.241Z,6.13
2023-04-16T05:30:11.165Z,7.37
2023-04-16T05:35:15.302Z,6.83
2023-04-16T05:40:22.213Z,8.37
2023-04-16T05:45:27.463Z,7.20
2023-04-16T05:50:31.307Z,14.70
2023-04-16T05:55:37.052Z,7.00
2023-04-16T06:00:40.852Z,6.10
2023-04-16T06:05:44.353Z,6.33
2023-04-16T06:10:49.832Z,6.07
2023-04-16T06:15:53.167Z,6.27
2023-04-16T06:20:58.916Z,6.80
2023-04-16T06:26:03.910Z,5.17
2023-04-16T06:31:09.815Z,5.60
2023-04-16T06:36:13.074Z,6.93
2023-04-16T06:41:17.693Z,10.13
2023-04-16T06:46:21.138Z,4.83
2023-04-16T06:51:24.335Z,5.13
2023-04-16T06:56:29.011Z,5.40
2023-04-16T07:01:32.639Z,4.77
2023-04-16T07:06:36.105Z,4.20
2023-04-16T07:11:42.137Z,4.00
2023-04-16T07:16:45.412Z,4.67
2023-04-16T07:21:54.534Z,3.90
2023-04-16T07:26:59.226Z,4.13
2023-04-16T07:32:03.389Z,5.90
2023-04-16T07:37:07.828Z,7.30
2023-04-16T07:42:16.944Z,4.20
2023-04-16T07:47:23.266Z,3.50
2023-04-16T07:52:27.534Z,2.83
2023-04-16T07:57:32.107Z,4.87
2023-04-16T08:02:38.448Z,7.63
2023-04-16T08:07:42.066Z,8.17
2023-04-16T08:12:46.685Z,7.87
2023-04-16T08:17:53.967Z,8.23
2023-04-16T08:22:57.432Z,9.53
2023-04-16T08:28:03.038Z,8.20
2023-04-16T08:33:06.849Z,8.27
2023-04-16T08:38:12.592Z,9.77
2023-04-16T08:43:19.374Z,11.97
2023-04-16T08:48:24.534Z,11.73
2023-04-16T08:53:36.893Z,9.63
2023-04-16T08:58:41.899Z,11.67
2023-04-16T09:03:49.932Z,14.23
2023-04-16T09:08:55.490Z,13.40
2023-04-16T09:14:01.842Z,11.80
2023-04-16T09:19:05.103Z,9.87
2023-04-16T09:24:14.616Z,9.70
2023-04-16T09:29:35.161Z,8.80
2023-04-16T09:34:57.560Z,10.07
2023-04-16T09:40:05.638Z,11.20
2023-04-16T09:45:10.873Z,7.40
2023-04-16T09:50:18.176Z,7.63
2023-04-16T09:55:24.836Z,7.07
2023-04-16T10:00:30.805Z,7.27
2023-04-16T10:05:34.202Z,6.13
2023-04-16T10:10:43.448Z,6.33
2023-04-16T10:15:48.472Z,5.70
2023-04-16T10:20:51.878Z,6.93
2023-04-16T10:25:59.095Z,8.40
2023-04-16T10:31:05.727Z,6.77
2023-04-16T10:36:13.429Z,6.17
2023-04-16T10:41:16.926Z,7.90
2023-04-16T10:46:27.033Z,4.87
2023-04-16T10:51:32.611Z,5.30
2023-04-16T10:56:39.519Z,4.50
2023-04-16T11:01:45.768Z,4.27
2023-04-16T11:07:06.355Z,4.30
2023-04-16T11:12:13.412Z,3.40
2023-04-16T11:17:22.418Z,3.40
2023-04-16T11:22:26.457Z,2.87
2023-04-16T11:27:36.255Z,6.93
2023-04-16T11:32:41.508Z,4.20
2023-04-16T11:37:48.438Z,3.60
2023-04-16T11:42:51.712Z,2.70
2023-04-16T11:47:57.995Z,3.33
2023-04-16T11:53:06.376Z,3.10
2023-04-16T11:58:15.487Z,2.93
2023-04-16T12:03:20.662Z,3.20
2023-04-16T12:08:31.766Z,2.20
2023-04-16T12:13:39.968Z,3.00
2023-04-16T12:19:01.366Z,3.57
2023-04-16T12:24:04.815Z,4.67
2023-04-16T12:29:18.987Z,4.07
2023-04-16T12:34:48.094Z,3.60
2023-04-16T12:39:48.113Z,3.50
2023-04-16T12:44:51.674Z,4.57
2023-04-16T12:49:57.320Z,4.43
2023-04-16T12:55:00.624Z,4.63
2023-04-16T13:00:08.870Z,4.63
2023-04-16T13:05:14.606Z,5.93
2023-04-16T13:10:25.098Z,7.33
2023-04-16T13:15:28.481Z,6.30
2023-04-16T13:20:36.106Z,6.20
2023-04-16T13:25:39.391Z,5.47
2023-04-16T13:30:48.456Z,6.30
2023-04-16T13:35:53.483Z,5.90
2023-04-16T13:41:01.184Z,7.43
2023-04-16T13:46:04.589Z,7.40
2023-04-16T13:51:12.050Z,7.63
2023-04-16T13:56:15.536Z,7.77
2023-04-16T14:01:18.901Z,6.80
2023-04-16T14:06:23.827Z,7.03
2023-04-16T14:11:27.605Z,7.30
2023-04-16T14:16:33.440Z,9.27
2023-04-16T14:21:38.167Z,9.70
2023-04-16T14:26:47.413Z,8.50
2023-04-16T14:31:54.107Z,8.38
2023-04-16T14:36:58.945Z,8.90
2023-04-16T14:42:03.351Z,15.00
2023-04-16T14:47:06.717Z,13.80
2023-04-16T14:52:14.437Z,15.73
2023-04-16T14:57:17.888Z,12.07
2023-04-16T15:02:22.075Z,13.30
2023-04-16T15:07:30.152Z,10.30
2023-04-16T15:12:33.355Z,10.00
2023-04-16T15:17:39.273Z,9.10
2023-04-16T15:22:43.880Z,8.40
2023-04-16T15:27:50.168Z,9.07
2023-04-16T15:32:55.133Z,15.40
2023-04-16T15:38:09.980Z,12.10
2023-04-16T15:43:13.335Z,10.03
2023-04-16T15:48:20.299Z,11.70
2023-04-16T15:53:25.118Z,8.93
2023-04-16T15:58:29.388Z,8.70
2023-04-16T16:03:36.572Z,8.80
2023-04-16T16:08:43.709Z,7.73
2023-04-16T16:13:50.078Z,6.97
2023-04-16T16:18:53.353Z,6.47
2023-04-16T16:24:01.098Z,5.67
2023-04-16T16:29:06.035Z,6.83
2023-04-16T16:34:20.070Z,7.33
2023-04-16T16:39:28.428Z,6.33
2023-04-16T16:44:31.970Z,5.73
2023-04-16T16:49:35.153Z,5.67
2023-04-16T16:54:43.495Z,5.50
2023-04-16T16:59:46.714Z,7.03
2023-04-16T17:04:55.859Z,5.07
2023-04-16T17:10:11.270Z,6.20
2023-04-16T17:15:14.826Z,6.43
2023-04-16T17:20:21.482Z,8.70
2023-04-16T17:25:26.555Z,7.97
2023-04-16T17:30:32.075Z,9.23
2023-04-16T17:35:41.243Z,8.57
2023-04-16T17:40:57.102Z,10.13
2023-04-16T17:46:00.565Z,15.20
2023-04-16T17:51:18.682Z,11.87
2023-04-16T17:56:25.743Z,12.70
2023-04-16T18:01:29.622Z,15.10
2023-04-16T18:06:56.185Z,11.90
2023-04-16T18:12:01.929Z,12.30
2023-04-16T18:17:12.005Z,13.77
2023-04-16T18:22:15.255Z,12.40
2023-04-16T18:27:26.736Z,14.50
2023-04-16T18:32:31.332Z,13.00
2023-04-16T18:37:35.714Z,14.60
2023-04-16T18:42:40.673Z,17.43
2023-04-16T18:47:51.785Z,13.50
2023-04-16T18:52:55.407Z,12.00
2023-04-16T18:57:59.937Z,12.37
2023-04-16T19:03:09.762Z,11.87
2023-04-16T19:08:13.430Z,13.23
2023-04-16T19:13:21.622Z,13.47
2023-04-16T19:18:24.934Z,18.83
2023-04-16T19:23:31.964Z,17.33
2023-04-16T19:28:38.736Z,17.47
2023-04-16T19:33:43.593Z,15.23
2023-04-16T19:38:46.952Z,16.17
2023-04-16T19:43:51.642Z,16.00
2023-04-16T19:48:54.962Z,13.27
2023-04-16T19:53:58.858Z,15.20
2023-04-16T19:59:11.407Z,14.47
2023-04-16T20:04:15.199Z,21.53
2023-04-16T20:09:21.152Z,22.07
2023-04-16T20:14:26.315Z,15.60
2023-04-16T20:19:34.023Z,12.30
2023-04-16T20:24:39.037Z,13.10
2023-04-16T20:29:43.906Z,12.97
2023-04-16T20:34:47.414Z,14.13
2023-04-16T20:39:54.289Z,12.60
2023-04-16T20:45:00.812Z,12.83
2023-04-16T20:50:04.077Z,12.77
2023-04-16T20:55:08.669Z,12.07
2023-04-16T21:00:15.117Z,18.10
2023-04-16T21:05:21.670Z,14.57
2023-04-16T21:10:25.677Z,14.27
2023-04-16T21:15:30.659Z,15.17
2023-04-16T21:20:34.001Z,12.37
2023-04-16T21:25:37.173Z,12.67
2023-04-16T21:30:42.090Z,11.27
2023-04-16T21:35:45.499Z,13.20
2023-04-16T21:40:50.846Z,10.63
2023-04-16T21:45:55.779Z,11.50
2023-04-16T21:51:06.260Z,11.00
2023-04-16T21:56:09.476Z,8.77
2023-04-16T22:01:14.991Z,8.03
2023-04-16T22:06:18.716Z,8.80
2023-04-16T22:11:22.762Z,10.57
2023-04-16T22:16:27.347Z,7.93
2023-04-16T22:21:31.463Z,10.23
2023-04-16T22:26:34.782Z,8.03
2023-04-16T22:31:39.617Z,6.80
2023-04-16T22:36:43.181Z,6.53
2023-04-16T22:41:46.370Z,5.37
2023-04-16T22:46:51.171Z,6.13
2023-04-16T22:51:54.461Z,6.63
2023-04-16T22:56:57.876Z,9.53
2023-04-16T23:02:02.631Z,5.20
2023-04-16T23:07:06.098Z,5.43
2023-04-16T23:12:09.523Z,6.97
2023-04-16T23:17:14.678Z,8.17
2023-04-16T23:22:17.829Z,7.80
2023-04-16T23:27:21.047Z,8.37
2023-04-16T23:32:25.873Z,8.60
2023-04-16T23:37:29.269Z,9.07
2023-04-16T23:42:32.391Z,10.63
2023-04-16T23:47:37.286Z,10.53
2023-04-16T23:52:40.537Z,13.20
2023-04-16T23:57:43.657Z,11.03
